createdAt,value
2022-11-10T00:02:10.332Z,99.90
2022-11-10T00:04:38.222Z,99.90
2022-11-10T00:07:06.110Z,99.90
2022-11-10T00:09:35.335Z,99.90
2022-11-10T00:12:03.174Z,99.90
2022-11-10T00:14:48.391Z,99.90
2022-11-10T00:17:16.214Z,99.90
2022-11-10T00:19:44.022Z,99.90
2022-11-10T00:22:11.786Z,99.90
2022-11-10T00:24:40.947Z,99.90
2022-11-10T00:27:08.776Z,99.90
2022-11-10T00:29:36.587Z,99.90
2022-11-10T00:32:04.460Z,99.90
2022-11-10T00:34:32.278Z,99.90
2022-11-10T00:37:00.052Z,99.90
2022-11-10T00:39:27.877Z,99.90
2022-11-10T00:41:57.135Z,99.90
2022-11-10T00:44:27.274Z,99.90
2022-11-10T00:46:55.133Z,99.90
2022-11-10T00:49:22.950Z,99.90
2022-11-10T00:51:50.757Z,99.90
2022-11-10T00:54:18.593Z,99.90
2022-11-10T00:56:46.562Z,99.90
2022-11-10T00:59:15.722Z,99.90
2022-11-10T01:01:43.531Z,99.90
2022-11-10T01:04:11.394Z,99.90
2022-11-10T01:06:39.292Z,99.90
2022-11-10T01:09:07.148Z,99.90
2022-11-10T01:11:34.965Z,99.90
2022-11-10T01:14:02.770Z,99.90
2022-11-10T01:16:32.659Z,99.90
2022-11-10T01:19:01.316Z,99.90
2022-11-10T01:21:29.609Z,99.90
2022-11-10T01:23:58.073Z,99.90
2022-11-10T01:26:26.025Z,99.90
2022-11-10T01:28:53.806Z,99.90
2022-11-10T01:31:22.478Z,99.90
2022-11-10T01:33:51.699Z,99.90
2022-11-10T01:36:19.593Z,99.90
2022-11-10T01:38:47.420Z,99.90
2022-11-10T01:41:15.987Z,99.90
2022-11-10T01:43:43.802Z,99.90
2022-11-10T01:46:12.251Z,99.90
2022-11-10T01:48:41.930Z,99.90
2022-11-10T01:51:12.691Z,99.90
2022-11-10T01:53:42.553Z,99.90
2022-11-10T01:56:11.230Z,99.90
2022-11-10T01:58:40.971Z,99.90
2022-11-10T02:01:08.959Z,99.90
2022-11-10T02:03:40.119Z,99.90
2022-11-10T02:06:08.083Z,99.90
2022-11-10T02:08:37.428Z,99.90
2022-11-10T02:11:05.458Z,99.90
2022-11-10T02:13:33.303Z,99.90
2022-11-10T02:16:01.158Z,99.90
2022-11-10T02:18:28.950Z,99.90
2022-11-10T02:20:58.176Z,99.90
2022-11-10T02:23:45.994Z,99.90
2022-11-10T02:26:15.493Z,99.90
2022-11-10T02:28:43.323Z,99.90
2022-11-10T02:31:11.145Z,99.90
2022-11-10T02:33:38.988Z,99.90
2022-11-10T02:43:32.524Z,99.90
2022-11-10T02:46:00.355Z,99.90
2022-11-10T02:48:28.172Z,99.90
2022-11-10T02:50:56.016Z,99.90
2022-11-10T02:53:24.268Z,99.90
2022-11-10T02:55:52.402Z,99.90
2022-11-10T02:58:20.231Z,99.90
2022-11-10T03:00:49.473Z,99.90
2022-11-10T03:03:17.334Z,99.90
2022-11-10T03:05:45.182Z,99.90
2022-11-10T03:08:12.991Z,99.90
2022-11-10T03:10:40.805Z,99.90
2022-11-10T03:13:08.685Z,99.90
2022-11-10T03:15:36.506Z,99.90
2022-11-10T03:18:06.364Z,99.90
2022-11-10T03:20:34.368Z,99.90
2022-11-10T03:23:02.956Z,99.90
2022-11-10T03:25:31.090Z,99.90
2022-11-10T03:27:58.910Z,99.90
2022-11-10T03:30:26.859Z,99.90
2022-11-10T03:32:54.672Z,99.90
2022-11-10T03:35:23.854Z,99.90
2022-11-10T03:37:51.645Z,99.90
2022-11-10T03:40:19.613Z,99.90
2022-11-10T03:42:47.724Z,99.90
2022-11-10T03:45:16.185Z,99.90
2022-11-10T03:47:45.910Z,99.90
2022-11-10T03:50:13.745Z,99.90
2022-11-10T03:52:43.557Z,99.90
2022-11-10T03:55:12.554Z,99.90
2022-11-10T03:57:40.530Z,99.90
2022-11-10T04:00:09.553Z,99.90
2022-11-10T04:02:37.447Z,99.90
2022-11-10T04:05:23.384Z,99.90
2022-11-10T04:08:15.798Z,99.90
2022-11-10T04:10:43.981Z,99.90
2022-11-10T04:13:29.450Z,99.90
2022-11-10T04:15:57.273Z,99.90
2022-11-10T04:18:29.638Z,99.90
2022-11-10T04:20:58.283Z,99.90
2022-11-10T04:23:28.518Z,99.90
2022-11-10T04:26:14.680Z,99.90
2022-11-10T04:28:42.847Z,99.90
2022-11-10T04:31:10.736Z,99.90
2022-11-10T04:33:38.885Z,99.90
2022-11-10T04:36:07.331Z,99.90
2022-11-10T04:38:36.522Z,99.90
2022-11-10T04:41:04.642Z,99.90
2022-11-10T04:43:32.794Z,99.90
2022-11-10T04:46:00.732Z,99.90
2022-11-10T04:48:28.876Z,99.90
2022-11-10T04:50:57.215Z,99.90
2022-11-10T04:53:25.546Z,99.90
2022-11-10T04:55:54.719Z,99.90
2022-11-10T04:58:22.585Z,99.90
2022-11-10T05:00:50.996Z,99.90
2022-11-10T05:03:19.065Z,99.90
2022-11-10T05:05:47.034Z,99.90
2022-11-10T05:08:14.835Z,99.90
2022-11-10T05:10:42.657Z,99.90
2022-11-10T05:13:11.812Z,99.90
2022-11-10T05:15:41.446Z,99.90
2022-11-10T05:18:11.092Z,99.90
2022-11-10T05:20:38.866Z,99.90
2022-11-10T05:23:24.245Z,99.90
2022-11-10T05:25:52.286Z,99.90
2022-11-10T05:28:21.498Z,99.90
2022-11-10T05:30:49.835Z,99.90
2022-11-10T05:33:17.714Z,99.90
2022-11-10T05:35:45.530Z,99.90
2022-11-10T05:38:13.351Z,99.90
2022-11-10T05:40:41.151Z,99.90
2022-11-10T05:43:09.016Z,99.90
2022-11-10T05:45:38.175Z,99.90
2022-11-10T05:48:06.103Z,99.90
2022-11-10T05:50:33.884Z,99.90
2022-11-10T05:53:01.730Z,99.90
2022-11-10T05:55:29.811Z,99.90
2022-11-10T05:57:58.203Z,99.90
2022-11-10T06:00:27.075Z,99.90
2022-11-10T06:02:59.656Z,99.90
2022-11-10T06:05:31.143Z,99.90
2022-11-10T06:07:59.843Z,99.90
2022-11-10T06:10:27.829Z,99.90
2022-11-10T06:12:55.984Z,99.90
2022-11-10T06:15:23.875Z,99.90
2022-11-10T06:17:51.876Z,99.90
2022-11-10T06:20:21.382Z,99.90
2022-11-10T06:22:59.394Z,99.90
2022-11-10T06:25:27.589Z,99.90
2022-11-10T06:27:55.542Z,99.90
2022-11-10T06:30:23.371Z,99.90
2022-11-10T06:32:51.194Z,99.90
2022-11-10T06:35:19.052Z,99.90
2022-11-10T06:37:57.234Z,99.90
2022-11-10T06:40:25.127Z,99.90
2022-11-10T06:42:52.974Z,99.90
2022-11-10T06:45:20.770Z,99.90
2022-11-10T06:47:48.635Z,99.90
2022-11-10T06:50:16.983Z,99.90
2022-11-10T06:52:44.816Z,99.90
2022-11-10T06:55:14.022Z,99.90
2022-11-10T06:57:41.897Z,99.90
2022-11-10T07:00:10.562Z,99.90
2022-11-10T07:02:38.628Z,99.90
2022-11-10T07:05:06.828Z,99.90
2022-11-10T07:07:34.712Z,99.90
2022-11-10T07:10:06.730Z,99.90
2022-11-10T07:12:36.473Z,99.90
2022-11-10T07:15:05.614Z,99.90
2022-11-10T07:17:33.431Z,99.90
2022-11-10T07:20:01.259Z,99.90
2022-11-10T07:22:29.121Z,99.90
2022-11-10T07:24:56.945Z,99.90
2022-11-10T07:27:24.801Z,99.90
2022-11-10T07:29:54.040Z,99.90
2022-11-10T07:32:21.900Z,99.90
2022-11-10T07:34:49.696Z,99.90
2022-11-10T07:37:17.578Z,99.90
2022-11-10T07:39:45.399Z,99.90
2022-11-10T07:42:13.238Z,99.90
2022-11-10T07:44:41.044Z,99.90
2022-11-10T07:49:38.314Z,99.90
2022-11-10T07:52:06.192Z,99.90
2022-11-10T07:54:34.054Z,99.90
2022-11-10T07:57:01.877Z,99.90
2022-11-10T07:59:29.935Z,99.90
2022-11-10T08:01:57.851Z,99.90
2022-11-10T08:04:25.715Z,99.90
2022-11-10T08:06:55.109Z,99.90
2022-11-10T08:09:22.964Z,99.90
2022-11-10T08:11:51.241Z,99.90
2022-11-10T08:14:19.025Z,99.90
2022-11-10T08:16:46.869Z,99.90
2022-11-10T08:19:14.730Z,99.90
2022-11-10T08:21:42.540Z,98.00
2022-11-10T08:24:11.939Z,92.70
2022-11-10T08:26:39.755Z,66.80
2022-11-10T08:29:07.573Z,1.00
2022-11-10T08:31:35.611Z,11.40
2022-11-10T08:34:03.406Z,26.00
2022-11-10T08:36:31.214Z,1.00
2022-11-10T08:38:58.999Z,1.00
2022-11-10T08:41:28.102Z,1.00
2022-11-10T08:43:55.903Z,1.00
2022-11-10T08:46:23.699Z,99.90
2022-11-10T08:48:51.550Z,99.90
2022-11-10T08:51:19.362Z,1.00
2022-11-10T08:53:47.144Z,1.00
2022-11-10T08:56:14.940Z,99.90
2022-11-10T11:09:47.470Z,99.90
2022-11-10T11:12:26.569Z,99.90
2022-11-10T11:15:11.390Z,99.90
2022-11-10T11:17:39.521Z,99.90
2022-11-10T11:20:07.750Z,99.90
2022-11-10T11:22:46.329Z,99.90
2022-11-10T11:25:21.119Z,99.90
2022-11-10T11:27:54.184Z,99.90
2022-11-10T11:30:23.217Z,99.90
2022-11-10T11:33:11.997Z,99.90
2022-11-10T11:35:45.272Z,99.90
2022-11-10T11:38:14.735Z,99.90
2022-11-10T11:40:57.280Z,99.90
2022-11-10T11:43:35.718Z,99.90
2022-11-10T11:46:07.670Z,99.90
2022-11-10T11:49:01.872Z,99.90
2022-11-10T11:51:35.249Z,99.90
2022-11-10T11:54:24.069Z,99.90
2022-11-10T11:56:53.426Z,99.90
2022-11-10T11:59:34.465Z,99.90
2022-11-10T12:02:13.412Z,99.90
2022-11-10T12:04:45.894Z,99.90
2022-11-10T12:07:24.852Z,99.90
2022-11-10T12:09:57.937Z,99.90
2022-11-10T12:12:37.544Z,99.90
2022-11-10T12:15:10.315Z,99.90
2022-11-10T12:17:40.961Z,99.90
2022-11-10T12:20:15.928Z,99.90
2022-11-10T12:22:47.751Z,99.90
2022-11-10T12:25:20.625Z,99.90
2022-11-10T12:27:51.873Z,99.90
2022-11-10T12:30:19.871Z,99.90
2022-11-10T12:32:49.959Z,99.90
2022-11-10T12:35:20.482Z,99.90
2022-11-10T12:37:51.260Z,99.90
2022-11-10T12:40:20.983Z,99.90
2022-11-10T12:42:52.396Z,99.90
2022-11-10T12:45:22.160Z,99.90
2022-11-10T12:47:50.179Z,99.90
2022-11-10T12:50:25.888Z,99.90
2022-11-10T12:52:55.958Z,99.90
2022-11-10T12:55:27.204Z,99.90
2022-11-10T12:57:56.512Z,99.90
2022-11-10T13:00:28.126Z,99.90
2022-11-10T13:02:57.123Z,99.90
2022-11-10T13:05:30.140Z,99.90
2022-11-10T13:08:09.199Z,99.90
2022-11-10T13:10:37.258Z,99.90
2022-11-10T13:13:14.934Z,99.90
2022-11-10T13:15:46.699Z,99.90
2022-11-10T13:18:23.585Z,99.90
2022-11-10T13:20:53.078Z,99.90
2022-11-10T13:23:25.012Z,99.90
2022-11-10T13:25:54.410Z,99.90
2022-11-10T13:28:41.172Z,99.90
2022-11-10T13:31:23.846Z,99.90
2022-11-10T13:34:10.733Z,99.90
2022-11-10T13:36:38.947Z,99.90
2022-11-10T13:39:33.834Z,99.90
2022-11-10T13:42:17.678Z,99.90
2022-11-10T13:44:47.684Z,99.90
2022-11-10T13:47:34.930Z,99.90
2022-11-10T13:50:12.916Z,99.90
2022-11-10T13:52:48.732Z,99.90
2022-11-10T13:55:22.552Z,99.90
2022-11-10T13:57:59.609Z,99.90
2022-11-10T14:00:28.681Z,99.90
2022-11-10T14:02:57.110Z,99.90
2022-11-10T14:05:41.961Z,99.90
2022-11-10T14:08:13.640Z,99.90
2022-11-10T14:10:43.665Z,99.90
2022-11-10T14:13:14.818Z,99.90
2022-11-10T14:15:44.009Z,99.90
2022-11-10T14:18:19.436Z,99.90
2022-11-10T14:20:48.442Z,99.90
2022-11-10T14:23:20.561Z,99.90
2022-11-10T14:25:57.189Z,99.90
2022-11-10T14:28:26.073Z,99.90
2022-11-10T14:30:54.490Z,99.90
2022-11-10T14:33:22.571Z,99.90
2022-11-10T14:35:51.215Z,99.90
2022-11-10T14:38:22.101Z,99.90
2022-11-10T14:40:50.371Z,99.90
2022-11-10T14:43:28.112Z,99.90
2022-11-10T14:45:56.285Z,99.90
2022-11-10T14:48:25.580Z,99.90
2022-11-10T14:50:54.194Z,99.90
2022-11-10T14:53:26.730Z,99.90
2022-11-10T14:55:55.210Z,99.90
2022-11-10T14:58:25.187Z,99.90
2022-11-10T15:00:53.496Z,99.90
2022-11-10T15:03:25.137Z,99.90
2022-11-10T15:05:52.956Z,99.90
2022-11-10T15:08:21.504Z,99.90
2022-11-10T15:10:53.110Z,99.90
2022-11-10T15:13:37.563Z,99.90
2022-11-10T15:16:23.079Z,1.00
2022-11-10T15:18:51.123Z,1.00
2022-11-10T15:21:19.890Z,1.00
2022-11-10T15:23:48.731Z,1.00
2022-11-10T15:26:21.858Z,1.00
2022-11-10T15:28:49.726Z,1.00
2022-11-10T15:31:23.457Z,1.00
2022-11-10T15:33:52.127Z,1.00
2022-11-10T15:36:28.560Z,1.00
2022-11-10T15:39:03.233Z,1.00
2022-11-10T15:41:34.263Z,1.00
2022-11-10T15:44:18.712Z,41.00
2022-11-10T15:46:46.574Z,99.90
2022-11-10T15:49:18.001Z,99.90
2022-11-10T15:51:46.042Z,99.90
2022-11-10T15:54:14.120Z,99.90
2022-11-10T15:56:43.341Z,1.00
2022-11-10T15:59:11.466Z,1.00
2022-11-10T16:01:39.778Z,1.00
2022-11-10T16:04:09.684Z,1.00
2022-11-10T16:06:37.648Z,99.90
2022-11-10T16:09:05.984Z,99.90
2022-11-10T16:11:35.660Z,1.00
2022-11-10T16:14:05.779Z,99.90
2022-11-10T16:16:33.724Z,99.90
2022-11-10T16:19:01.521Z,1.00
2022-11-10T16:21:29.838Z,99.90
2022-11-10T16:23:57.642Z,99.90
2022-11-10T16:26:26.750Z,1.00
2022-11-10T16:28:54.573Z,1.00
2022-11-10T16:31:23.763Z,99.90
2022-11-10T16:33:51.710Z,99.90
2022-11-10T16:36:22.907Z,99.90
2022-11-10T16:38:50.732Z,1.00
2022-11-10T16:41:18.576Z,99.90
2022-11-10T16:43:46.544Z,99.90
2022-11-10T16:46:17.380Z,22.70
2022-11-10T16:48:47.750Z,99.90
2022-11-10T16:51:17.917Z,50.40
2022-11-10T16:53:46.871Z,1.00
2022-11-10T16:56:15.561Z,27.50
2022-11-10T16:58:43.617Z,99.90
2022-11-10T17:01:15.506Z,1.00
2022-11-10T17:03:45.838Z,99.90
2022-11-10T17:06:15.672Z,1.00
2022-11-10T17:08:44.420Z,99.90
2022-11-10T17:11:12.234Z,99.90
2022-11-10T17:13:40.064Z,99.90
2022-11-10T17:16:08.972Z,88.40
2022-11-10T17:18:36.915Z,1.00
2022-11-10T17:21:06.579Z,99.90
2022-11-10T17:23:36.406Z,34.90
2022-11-10T17:26:04.391Z,99.90
2022-11-10T17:28:32.194Z,1.00
2022-11-10T17:31:00.029Z,99.90
2022-11-10T17:33:27.835Z,99.90
2022-11-10T17:35:57.395Z,99.90
2022-11-10T17:38:25.968Z,99.90
2022-11-10T17:40:55.396Z,99.90
2022-11-10T17:43:23.895Z,1.00
2022-11-10T17:45:52.568Z,1.00
2022-11-10T17:48:21.306Z,1.00
2022-11-10T17:50:49.146Z,1.00
2022-11-10T17:53:20.261Z,1.00
2022-11-10T17:55:49.012Z,1.00
2022-11-10T17:58:18.597Z,1.00
2022-11-10T18:00:46.657Z,1.00
2022-11-10T18:03:15.172Z,1.00
2022-11-10T18:05:43.371Z,1.00
2022-11-10T18:08:11.249Z,1.00
2022-11-10T18:10:41.990Z,1.00
2022-11-10T18:13:10.023Z,1.00
2022-11-10T18:15:42.006Z,1.00
2022-11-10T18:18:11.503Z,1.00
2022-11-10T18:20:40.176Z,1.00
2022-11-10T18:23:11.468Z,23.00
2022-11-10T18:25:39.811Z,10.40
2022-11-10T18:28:07.676Z,1.00
2022-11-10T18:30:35.674Z,1.00
2022-11-10T18:33:05.104Z,40.80
2022-11-10T18:35:32.948Z,33.50
2022-11-10T18:38:00.783Z,58.50
2022-11-10T18:40:28.649Z,51.20
2022-11-10T18:42:56.851Z,76.90
2022-11-10T18:45:24.687Z,28.40
2022-11-10T18:47:52.549Z,96.20
2022-11-10T18:50:21.749Z,54.70
2022-11-10T18:52:49.594Z,84.40
2022-11-10T18:55:17.577Z,82.30
2022-11-10T18:57:45.431Z,67.50
2022-11-10T19:00:14.116Z,99.90
2022-11-10T19:02:42.826Z,99.90
2022-11-10T19:05:10.868Z,99.90
2022-11-10T19:07:40.047Z,88.30
2022-11-10T19:10:07.985Z,99.90
2022-11-10T19:12:35.905Z,99.90
2022-11-10T19:15:03.751Z,99.90
2022-11-10T19:17:31.566Z,99.90
2022-11-10T19:19:59.394Z,99.90
2022-11-10T19:22:27.275Z,99.90
2022-11-10T19:25:11.810Z,99.90
2022-11-10T19:27:39.653Z,99.90
2022-11-10T19:30:07.863Z,99.90
2022-11-10T19:32:35.697Z,99.90
2022-11-10T19:35:04.299Z,99.90
2022-11-10T19:37:34.742Z,99.90
2022-11-10T19:40:04.329Z,99.90
2022-11-10T19:42:33.021Z,99.90
2022-11-10T19:45:01.617Z,99.90
2022-11-10T19:47:30.465Z,99.90
2022-11-10T19:49:58.338Z,99.90
2022-11-10T19:52:26.199Z,99.90
2022-11-10T19:54:54.021Z,99.90
2022-11-10T19:57:23.660Z,99.90
2022-11-10T19:59:51.525Z,99.90
2022-11-10T20:02:19.553Z,99.90
2022-11-10T20:05:04.591Z,99.90
2022-11-10T20:07:49.861Z,99.90
2022-11-10T20:10:18.070Z,99.90
2022-11-10T20:12:47.299Z,99.90
2022-11-10T20:15:15.175Z,99.90
2022-11-10T20:17:43.047Z,99.90
2022-11-10T20:20:10.970Z,99.90
2022-11-10T20:22:38.812Z,99.90
2022-11-10T20:25:06.827Z,99.90
2022-11-10T20:27:34.682Z,99.90
2022-11-10T20:30:03.996Z,99.90
2022-11-10T20:32:32.053Z,99.90
2022-11-10T20:35:00.508Z,99.90
2022-11-10T20:37:28.335Z,99.90
2022-11-10T20:39:56.169Z,99.90
2022-11-10T20:42:23.987Z,99.90
2022-11-10T20:44:51.851Z,99.90
2022-11-10T20:47:21.056Z,99.90
2022-11-10T20:49:48.912Z,99.90
2022-11-10T20:52:16.765Z,99.90
2022-11-10T20:54:44.749Z,99.90
2022-11-10T20:57:12.553Z,99.90
2022-11-10T20:59:40.400Z,99.90
2022-11-10T21:02:08.242Z,99.90
2022-11-10T21:04:42.693Z,99.90
2022-11-10T21:07:11.102Z,99.90
2022-11-10T21:09:38.995Z,99.90
2022-11-10T21:12:24.452Z,99.90
2022-11-10T21:14:52.260Z,99.90
2022-11-10T21:17:20.088Z,99.90
2022-11-10T21:19:49.456Z,99.90
2022-11-10T21:22:17.319Z,99.90
2022-11-10T21:24:45.125Z,99.90
2022-11-10T21:27:13.261Z,99.90
2022-11-10T21:29:42.315Z,99.90
2022-11-10T21:32:10.203Z,99.90
2022-11-10T21:34:37.976Z,99.90
2022-11-10T21:37:07.138Z,99.90
2022-11-10T21:39:34.926Z,99.90
2022-11-10T21:42:02.760Z,99.90
2022-11-10T21:44:30.587Z,99.90
2022-11-10T21:46:58.405Z,99.90
2022-11-10T21:49:26.233Z,99.90
2022-11-10T21:51:54.117Z,99.90
2022-11-10T21:54:23.650Z,99.90
2022-11-10T21:56:51.435Z,99.90
2022-11-10T21:59:19.848Z,99.90
2022-11-10T22:01:47.759Z,99.90
2022-11-10T22:04:16.071Z,99.90
2022-11-10T22:07:01.575Z,99.90
2022-11-10T22:09:48.229Z,99.90
2022-11-10T22:12:33.329Z,99.90
2022-11-10T22:15:18.391Z,99.90
2022-11-10T22:18:03.565Z,99.90
2022-11-10T22:20:31.398Z,99.90
2022-11-10T22:22:59.218Z,99.90
2022-11-10T22:25:28.381Z,99.90
2022-11-10T22:27:56.272Z,99.90
2022-11-10T22:30:24.133Z,99.90
2022-11-10T22:32:51.952Z,99.90
2022-11-10T22:35:33.649Z,99.90
2022-11-10T22:38:05.386Z,99.90
2022-11-10T22:40:52.744Z,99.90
2022-11-10T22:43:37.937Z,99.90
2022-11-10T22:46:05.848Z,99.90
2022-11-10T22:48:33.973Z,99.90
2022-11-10T22:51:01.876Z,99.90
2022-11-10T22:53:30.703Z,99.90
2022-11-10T22:56:01.601Z,99.90
2022-11-10T22:58:29.411Z,99.90
2022-11-10T23:01:04.223Z,99.90
2022-11-10T23:03:32.088Z,99.90
2022-11-10T23:06:00.011Z,99.90
2022-11-10T23:08:28.065Z,99.90
2022-11-10T23:11:00.836Z,99.90
2022-11-10T23:13:29.038Z,99.90
2022-11-10T23:16:02.073Z,99.90
2022-11-10T23:18:30.285Z,99.90
2022-11-10T23:20:59.146Z,99.90
2022-11-10T23:23:27.115Z,99.90
2022-11-10T23:25:58.556Z,99.90
2022-11-10T23:28:28.757Z,99.90
2022-11-10T23:30:56.792Z,99.90
2022-11-10T23:33:28.699Z,99.90
2022-11-10T23:35:59.442Z,99.90
2022-11-10T23:38:29.907Z,99.90
2022-11-10T23:40:57.886Z,99.90
2022-11-10T23:43:26.307Z,99.90
2022-11-10T23:46:11.338Z,99.90
2022-11-10T23:48:39.571Z,99.90
2022-11-10T23:51:08.379Z,99.90
2022-11-10T23:53:36.201Z,99.90
2022-11-10T23:56:04.827Z,99.90
2022-11-10T23:58:33.002Z,99.90
